| time (UTC) | temp C | wind direction | speed KPH | gust KPH | rain 1hr cm | rain 24hr cm | rain mn cm | humidity % | barometer mb |
| 20260504005005 | 18 | 261 | 6.4 | 14.5 | 0.00 | 0.00 | 0.00 | 44 | 1003.7 |
| 20260504004520 | 18 | 265 | 6.4 | 12.9 | 0.00 | 0.00 | 0.00 | 44 | 1003.7 |
| 20260504004004 | 18 | 250 | 6.4 | 20.9 | 0.00 | 0.00 | 0.00 | 44 | 1003.6 |
| 20260504003503 | 18 | 255 | 8.0 | 20.9 | 0.00 | 0.00 | 0.00 | 43 | 1003.6 |
| 20260504003012 | 18 | 265 | 11.3 | 20.9 | 0.00 | 0.00 | 0.00 | 43 | 1003.6 |
| 20260504002503 | 18 | 240 | 8.0 | 19.3 | 0.00 | 0.00 | 0.00 | 43 | 1003.6 |
| 20260504002003 | 18 | 263 | 11.3 | 20.9 | 0.00 | 0.00 | 0.00 | 42 | 1003.5 |
| 20260504001511 | 18 | 262 | 9.7 | 20.9 | 0.00 | 0.00 | 0.00 | 42 | 1003.5 |
| 20260504001006 | 18 | 257 | 8.0 | 20.9 | 0.00 | 0.00 | 0.00 | 42 | 1003.5 |
| 20260504000507 | 18 | 257 | 9.7 | 27.4 | 0.00 | 0.00 | 0.00 | 41 | 1003.5 |
| 20260504000014 | 18 | 279 | 12.9 | 27.4 | 0.00 | 0.00 | 0.00 | 41 | 1003.5 |
| 20260503235507 | 18 | 271 | 12.9 | 27.4 | 0.00 | 0.00 | 0.00 | 41 | 1003.5 |
| 20260503235006 | 18 | 262 | 14.5 | 27.4 | 0.00 | 0.00 | 0.00 | 40 | 1003.5 |
| 20260503234526 | 18 | 254 | 14.5 | 25.7 | 0.00 | 0.00 | 0.00 | 40 | 1003.4 |
| 20260503234006 | 19 | 277 | 16.1 | 33.8 | 0.00 | 0.00 | 0.00 | 41 | 1003.5 |
| 20260503233511 | 19 | 272 | 14.5 | 33.8 | 0.00 | 0.00 | 0.00 | 40 | 1003.5 |
| 20260503233035 | 18 | 284 | 14.5 | 30.6 | 0.00 | 0.00 | 0.00 | 41 | 1003.5 |
| 20260503232506 | 18 | 271 | 14.5 | 27.4 | 0.00 | 0.00 | 0.00 | 40 | 1003.5 |
| 20260503232003 | 18 | 277 | 12.9 | 29.0 | 0.00 | 0.00 | 0.00 | 41 | 1003.6 |
| 20260503231504 | 18 | 277 | 16.1 | 35.4 | 0.00 | 0.00 | 0.00 | 41 | 1003.7 |
| 20260503231003 | 18 | 257 | 20.9 | 35.4 | 0.00 | 0.00 | 0.00 | 41 | 1003.6 |
| 20260503230503 | 18 | 252 | 17.7 | 37.0 | 0.00 | 0.00 | 0.00 | 40 | 1003.7 |
| 20260503230004 | 18 | 264 | 17.7 | 37.0 | 0.00 | 0.00 | 0.00 | 40 | 1003.8 |
| 20260503225503 | 18 | 239 | 14.5 | 29.0 | 0.00 | 0.00 | 0.00 | 42 | 1003.9 |
| 20260503225003 | 18 | 271 | 17.7 | 32.2 | 0.00 | 0.00 | 0.00 | 42 | 1003.8 |
| 20260503224505 | 18 | 309 | 14.5 | 32.2 | 0.00 | 0.00 | 0.00 | 42 | 1003.8 |
| 20260503224003 | 18 | 277 | 19.3 | 37.0 | 0.00 | 0.00 | 0.00 | 42 | 1003.8 |
| 20260503223503 | 18 | 272 | 20.9 | 37.0 | 0.00 | 0.00 | 0.00 | 42 | 1003.9 |
| 20260503223003 | 18 | 254 | 20.9 | 38.6 | 0.00 | 0.00 | 0.00 | 42 | 1003.9 |
| 20260503222503 | 18 | 259 | 22.5 | 38.6 | 0.00 | 0.00 | 0.00 | 42 | 1003.9 |
| 20260503222003 | 18 | 257 | 12.9 | 45.1 | 0.00 | 0.00 | 0.00 | 43 | 1003.9 |
| 20260503221504 | 18 | 269 | 24.1 | 45.1 | 0.00 | 0.00 | 0.00 | 42 | 1003.9 |
| 20260503221003 | 18 | 244 | 17.7 | 45.1 | 0.00 | 0.00 | 0.00 | 42 | 1004.0 |
| 20260503220502 | 18 | 263 | 19.3 | 45.1 | 0.00 | 0.00 | 0.00 | 42 | 1004.1 |
| 20260503220004 | 18 | 263 | 19.3 | 37.0 | 0.00 | 0.00 | 0.00 | 43 | 1004.0 |
| 20260503215504 | 18 | 263 | 14.5 | 37.0 | 0.00 | 0.00 | 0.00 | 43 | 1004.0 |
| 20260503215002 | 18 | 272 | 16.1 | 43.5 | 0.00 | 0.00 | 0.00 | 42 | 1004.2 |
| 20260503214507 | 18 | 236 | 24.1 | 43.5 | 0.00 | 0.00 | 0.00 | 42 | 1004.0 |
| 20260503214004 | 18 | 250 | 19.3 | 37.0 | 0.00 | 0.00 | 0.00 | 42 | 1004.2 |
| 20260503213503 | 18 | 260 | 16.1 | 45.1 | 0.00 | 0.00 | 0.00 | 43 | 1004.3 |
| 20260503213005 | 17 | 263 | 22.5 | 45.1 | 0.00 | 0.00 | 0.00 | 42 | 1004.5 |
| 20260503212503 | 18 | 281 | 22.5 | 45.1 | 0.00 | 0.00 | 0.00 | 42 | 1004.6 |
| 20260503212003 | 18 | 284 | 17.7 | 41.8 | 0.00 | 0.00 | 0.00 | 43 | 1004.5 |
| 20260503211503 | 17 | 256 | 24.1 | 41.8 | 0.00 | 0.00 | 0.00 | 42 | 1004.5 |
| 20260503211002 | 17 | 275 | 22.5 | 41.8 | 0.00 | 0.00 | 0.00 | 43 | 1004.5 |
| 20260503210502 | 18 | 246 | 19.3 | 40.2 | 0.00 | 0.00 | 0.00 | 43 | 1004.5 |
| 20260503210005 | 18 | 241 | 16.1 | 40.2 | 0.00 | 0.00 | 0.00 | 43 | 1004.5 |
| 20260503205504 | 17 | 150 | 19.3 | 37.0 | 0.00 | 0.00 | 0.00 | 43 | 1004.6 |
| 20260503205003 | 17 | 254 | 22.5 | 35.4 | 0.00 | 0.00 | 0.00 | 42 | 1004.7 |
| 20260503204523 | 17 | 255 | 22.5 | 35.4 | 0.00 | 0.00 | 0.00 | 44 | 1004.8 |
| 20260503204008 | 17 | 235 | 17.7 | 40.2 | 0.00 | 0.00 | 0.00 | 47 | 1005.0 |
| 20260503203505 | 17 | 249 | 22.5 | 40.2 | 0.00 | 0.00 | 0.00 | 47 | 1005.0 |
| 20260503203006 | 17 | 263 | 19.3 | 41.8 | 0.00 | 0.00 | 0.00 | 48 | 1005.0 |
| 20260503202504 | 16 | 242 | 20.9 | 41.8 | 0.00 | 0.00 | 0.00 | 48 | 1005.1 |
| 20260503202003 | 16 | 259 | 19.3 | 41.8 | 0.00 | 0.00 | 0.00 | 49 | 1005.3 |
| 20260503201508 | 16 | 271 | 19.3 | 37.0 | 0.00 | 0.00 | 0.00 | 49 | 1005.5 |
| 20260503201003 | 16 | 241 | 20.9 | 41.8 | 0.00 | 0.00 | 0.00 | 48 | 1005.6 |
| 20260503200505 | 16 | 227 | 19.3 | 41.8 | 0.00 | 0.00 | 0.00 | 49 | 1005.7 |
| 20260503200008 | 16 | 240 | 20.9 | 56.3 | 0.00 | 0.00 | 0.00 | 48 | 1005.8 |
| 20260503195506 | 16 | 248 | 22.5 | 56.3 | 0.00 | 0.00 | 0.00 | 47 | 1005.9 |
| 20260503195006 | 16 | 255 | 20.9 | 43.5 | 0.00 | 0.00 | 0.00 | 47 | 1005.9 |
| 20260503194508 | 16 | 246 | 24.1 | 46.7 | 0.00 | 0.00 | 0.00 | 46 | 1006.0 |
| 20260503194006 | 17 | 265 | 29.0 | 53.1 | 0.00 | 0.00 | 0.00 | 44 | 1005.9 |
| 20260503193504 | 16 | 231 | 19.3 | 53.1 | 0.00 | 0.00 | 0.00 | 46 | 1006.0 |
| 20260503193022 | 16 | 259 | 27.4 | 53.1 | 0.00 | 0.00 | 0.00 | 45 | 1006.1 |
| 20260503192504 | 16 | 275 | 25.7 | 57.9 | 0.00 | 0.00 | 0.00 | 43 | 1006.0 |
| 20260503192007 | 16 | 237 | 29.0 | 57.9 | 0.00 | 0.00 | 0.00 | 43 | 1006.0 |
| 20260503191505 | 16 | 252 | 27.4 | 51.5 | 0.00 | 0.00 | 0.00 | 42 | 1005.9 |
| 20260503191002 | 17 | 258 | 30.6 | 49.9 | 0.00 | 0.00 | 0.00 | 43 | 1005.9 |
| 20260503190504 | 16 | 265 | 30.6 | 46.7 | 0.00 | 0.00 | 0.00 | 42 | 1005.8 |
| 20260503190010 | 16 | 245 | 24.1 | 48.3 | 0.00 | 0.00 | 0.00 | 43 | 1006.0 |
| 20260503185503 | 16 | 261 | 20.9 | 48.3 | 0.00 | 0.00 | 0.00 | 43 | 1006.0 |
| 20260503185003 | 16 | 252 | 27.4 | 48.3 | 0.00 | 0.00 | 0.00 | 43 | 1006.1 |
| 20260503184516 | 16 | 255 | 27.4 | 54.7 | 0.00 | 0.00 | 0.00 | 44 | 1006.1 |
| 20260503184003 | 16 | 257 | 29.0 | 54.7 | 0.00 | 0.00 | 0.00 | 44 | 1006.1 |
| 20260503183510 | 16 | 267 | 30.6 | 54.7 | 0.00 | 0.00 | 0.00 | 44 | 1006.4 |
| 20260503183011 | 16 | 229 | 29.0 | 51.5 | 0.00 | 0.00 | 0.00 | 45 | 1006.5 |
| 20260503182505 | 16 | 229 | 29.0 | 46.7 | 0.00 | 0.00 | 0.00 | 46 | 1006.7 |
| 20260503182012 | 15 | 254 | 27.4 | 46.7 | 0.00 | 0.00 | 0.00 | 47 | 1006.7 |
| 20260503181514 | 15 | 232 | 17.7 | 43.5 | 0.00 | 0.00 | 0.00 | 49 | 1006.8 |
| 20260503181004 | 15 | 234 | 22.5 | 43.5 | 0.00 | 0.00 | 0.00 | 49 | 1006.9 |
| 20260503180509 | 15 | 236 | 19.3 | 43.5 | 0.00 | 0.00 | 0.00 | 50 | 1007.0 |
| 20260503180011 | 15 | 248 | 14.5 | 45.1 | 0.00 | 0.00 | 0.00 | 52 | 1007.0 |
| 20260503175504 | 15 | 264 | 12.9 | 45.1 | 0.00 | 0.00 | 0.00 | 52 | 1007.1 |
| 20260503175007 | 15 | 257 | 17.7 | 45.1 | 0.00 | 0.00 | 0.00 | 51 | 1007.1 |
| 20260503174515 | 15 | 239 | 12.9 | 46.7 | 0.00 | 0.00 | 0.00 | 52 | 1007.2 |
| 20260503174003 | 14 | 167 | 14.5 | 46.7 | 0.00 | 0.00 | 0.00 | 53 | 1007.3 |
| 20260503173507 | 14 | 201 | 16.1 | 33.8 | 0.00 | 0.00 | 0.00 | 53 | 1007.5 |
| 20260503173017 | 14 | 227 | 16.1 | 35.4 | 0.00 | 0.00 | 0.00 | 54 | 1007.5 |
| 20260503172509 | 13 | 248 | 16.1 | 40.2 | 0.00 | 0.00 | 0.00 | 55 | 1007.6 |
| 20260503172004 | 13 | 228 | 22.5 | 40.2 | 0.00 | 0.00 | 0.00 | 55 | 1007.6 |
| 20260503171514 | 13 | 225 | 22.5 | 40.2 | 0.00 | 0.00 | 0.00 | 55 | 1007.7 |
| 20260503171008 | 13 | 255 | 12.9 | 35.4 | 0.00 | 0.00 | 0.00 | 56 | 1007.8 |
| 20260503170507 | 13 | 238 | 19.3 | 35.4 | 0.00 | 0.00 | 0.00 | 57 | 1007.8 |
| 20260503151007 | 12 | 258 | 22.5 | 43.5 | 0.00 | 0.00 | 0.00 | 55 | 1009.3 |
| 20260503150508 | 12 | 270 | 20.9 | 46.7 | 0.00 | 0.00 | 0.00 | 54 | 1009.4 |
| 20260503131003 | 10 | 263 | 16.1 | 38.6 | 0.00 | 0.00 | 0.00 | 56 | 1010.2 |
| 20260503130502 | 10 | 262 | 17.7 | 38.6 | 0.00 | 0.00 | 0.00 | 55 | 1010.2 |
| 20260503110504 | 9 | 235 | 17.7 | 32.2 | 0.00 | 0.00 | 0.00 | 49 | 1010.2 |
| 20260503090506 | 8 | 234 | 12.9 | 20.9 | 0.00 | 0.00 | 0.00 | 51 | 1011.0 |
| 20260503081509 | 8 | 244 | 12.9 | 27.4 | 0.00 | 0.00 | 0.00 | 51 | 1011.4 |
| 20260503081008 | 8 | 237 | 14.5 | 27.4 | 0.00 | 0.00 | 0.00 | 51 | 1011.4 |
| 20260503080504 | 8 | 254 | 12.9 | 22.5 | 0.00 | 0.00 | 0.00 | 51 | 1011.4 |
| 20260503072504 | 8 | 247 | 16.1 | 25.7 | 0.00 | 0.00 | 0.00 | 51 | 1011.7 |
| 20260503072007 | 8 | 253 | 14.5 | 25.7 | 0.00 | 0.00 | 0.00 | 51 | 1011.7 |
| 20260503071513 | 8 | 261 | 11.3 | 25.7 | 0.00 | 0.00 | 0.00 | 51 | 1011.8 |
| 20260503071004 | 8 | 238 | 12.9 | 25.7 | 0.00 | 0.00 | 0.00 | 51 | 1011.8 |
| 20260503070504 | 8 | 238 | 14.5 | 25.7 | 0.00 | 0.00 | 0.00 | 51 | 1011.8 |
| 20260503055006 | 8 | 229 | 12.9 | 22.5 | 0.00 | 0.00 | 0.00 | 51 | 1012.4 |
| 20260503054516 | 8 | 247 | 14.5 | 22.5 | 0.00 | 0.00 | 0.00 | 51 | 1012.5 |
| 20260503054006 | 8 | 248 | 14.5 | 22.5 | 0.00 | 0.00 | 0.00 | 51 | 1012.5 |
| 20260503053505 | 8 | 246 | 12.9 | 27.4 | 0.00 | 0.00 | 0.00 | 51 | 1012.6 |
| 20260503053019 | 8 | 226 | 14.5 | 27.4 | 0.00 | 0.00 | 0.00 | 51 | 1012.7 |
| 20260503052506 | 8 | 242 | 14.5 | 24.1 | 0.00 | 0.00 | 0.00 | 51 | 1012.8 |
| 20260503052008 | 8 | 250 | 14.5 | 24.1 | 0.00 | 0.00 | 0.00 | 51 | 1012.7 |
| 20260503051505 | 8 | 277 | 14.5 | 24.1 | 0.00 | 0.00 | 0.00 | 51 | 1012.8 |
| 20260503051003 | 8 | 263 | 14.5 | 24.1 | 0.00 | 0.00 | 0.00 | 51 | 1012.8 |
| 20260503050504 | 8 | 249 | 14.5 | 24.1 | 0.00 | 0.00 | 0.00 | 51 | 1012.8 |
| 20260503050012 | 8 | 242 | 14.5 | 24.1 | 0.00 | 0.00 | 0.00 | 50 | 1012.7 |
| 20260503045505 | 8 | 244 | 12.9 | 20.9 | 0.00 | 0.00 | 0.00 | 50 | 1012.7 |
| 20260503045004 | 8 | 252 | 12.9 | 22.5 | 0.00 | 0.00 | 0.00 | 50 | 1012.7 |
| 20260503044503 | 8 | 254 | 14.5 | 22.5 | 0.00 | 0.00 | 0.00 | 50 | 1012.8 |
| 20260503044003 | 8 | 242 | 14.5 | 24.1 | 0.00 | 0.00 | 0.00 | 50 | 1012.8 |
| 20260503043502 | 8 | 243 | 14.5 | 24.1 | 0.00 | 0.00 | 0.00 | 50 | 1012.8 |
| 20260503043005 | 8 | 242 | 12.9 | 22.5 | 0.00 | 0.00 | 0.00 | 50 | 1012.9 |
| 20260503042503 | 8 | 247 | 14.5 | 19.3 | 0.00 | 0.00 | 0.00 | 50 | 1012.9 |
| 20260503042003 | 8 | 243 | 12.9 | 22.5 | 0.00 | 0.00 | 0.00 | 50 | 1012.9 |
| 20260503041506 | 8 | 250 | 14.5 | 22.5 | 0.00 | 0.00 | 0.00 | 50 | 1013.0 |
| 20260503041002 | 8 | 247 | 12.9 | 27.4 | 0.00 | 0.00 | 0.00 | 50 | 1013.0 |
| 20260503040502 | 8 | 255 | 12.9 | 27.4 | 0.00 | 0.00 | 0.00 | 50 | 1013.1 |
| 20260503040002 | 8 | 238 | 12.9 | 27.4 | 0.00 | 0.00 | 0.00 | 50 | 1013.1 |
| 20260503035502 | 8 | 236 | 12.9 | 20.9 | 0.00 | 0.00 | 0.00 | 49 | 1013.1 |
| 20260503035002 | 8 | 240 | 12.9 | 19.3 | 0.00 | 0.00 | 0.00 | 49 | 1013.1 |
| 20260503034505 | 8 | 240 | 12.9 | 22.5 | 0.00 | 0.00 | 0.00 | 49 | 1013.2 |
| 20260503034007 | 8 | 246 | 12.9 | 22.5 | 0.00 | 0.00 | 0.00 | 49 | 1013.2 |
| 20260503033504 | 8 | 229 | 11.3 | 19.3 | 0.00 | 0.00 | 0.00 | 49 | 1013.3 |
| 20260503033007 | 8 | 240 | 12.9 | 20.9 | 0.00 | 0.00 | 0.00 | 49 | 1013.3 |
| 20260503032503 | 8 | 236 | 12.9 | 20.9 | 0.00 | 0.00 | 0.00 | 49 | 1013.3 |
| 20260503032003 | 8 | 250 | 12.9 | 19.3 | 0.00 | 0.00 | 0.00 | 50 | 1013.3 |
| 20260503031516 | 9 | 245 | 9.7 | 20.9 | 0.00 | 0.00 | 0.00 | 50 | 1013.4 |
| 20260503031003 | 9 | 232 | 14.5 | 20.9 | 0.00 | 0.00 | 0.00 | 49 | 1013.4 |
| 20260503030502 | 9 | 223 | 9.7 | 17.7 | 0.00 | 0.00 | 0.00 | 50 | 1013.5 |
| 20260503030004 | 9 | 221 | 8.0 | 16.1 | 0.00 | 0.00 | 0.00 | 49 | 1013.6 |
| 20260503025508 | 9 | 235 | 9.7 | 16.1 | 0.00 | 0.00 | 0.00 | 49 | 1013.6 |
| 20260503025007 | 9 | 233 | 9.7 | 16.1 | 0.00 | 0.00 | 0.00 | 49 | 1013.7 |
| 20260503024508 | 9 | 232 | 8.0 | 14.5 | 0.00 | 0.00 | 0.00 | 49 | 1013.6 |
| 20260503024007 | 9 | 239 | 6.4 | 12.9 | 0.00 | 0.00 | 0.00 | 49 | 1013.7 |
| 20260503023503 | 9 | 231 | 6.4 | 12.9 | 0.00 | 0.00 | 0.00 | 49 | 1013.7 |
| 20260503023005 | 9 | 235 | 6.4 | 12.9 | 0.00 | 0.00 | 0.00 | 49 | 1013.8 |
| 20260503022503 | 9 | 238 | 6.4 | 12.9 | 0.00 | 0.00 | 0.00 | 49 | 1013.8 |
| 20260503022005 | 10 | 224 | 6.4 | 11.3 | 0.00 | 0.00 | 0.00 | 48 | 1013.8 |
| 20260503021519 | 10 | 224 | 3.2 | 12.9 | 0.00 | 0.00 | 0.00 | 48 | 1013.7 |
| 20260503021003 | 10 | 218 | 3.2 | 12.9 | 0.00 | 0.00 | 0.00 | 47 | 1013.8 |
| 20260503020503 | 10 | 234 | 3.2 | 11.3 | 0.00 | 0.00 | 0.00 | 47 | 1013.8 |
| 20260503020020 | 10 | 224 | 3.2 | 11.3 | 0.00 | 0.00 | 0.00 | 46 | 1013.7 |
| 20260503015503 | 10 | 214 | 3.2 | 9.7 | 0.00 | 0.00 | 0.00 | 44 | 1013.7 |
| 20260503015003 | 11 | 218 | 1.6 | 9.7 | 0.00 | 0.00 | 0.00 | 42 | 1013.6 |
| 20260503014510 | 11 | 220 | 3.2 | 9.7 | 0.00 | 0.00 | 0.00 | 41 | 1013.5 |
| 20260503014009 | 11 | 211 | 4.8 | 11.3 | 0.00 | 0.00 | 0.00 | 41 | 1013.5 |
| 20260503013503 | 11 | 226 | 3.2 | 14.5 | 0.00 | 0.00 | 0.00 | 40 | 1013.5 |
| 20260503013010 | 11 | 238 | 6.4 | 14.5 | 0.00 | 0.00 | 0.00 | 39 | 1013.4 |
| 20260503012508 | 11 | 244 | 6.4 | 14.5 | 0.00 | 0.00 | 0.00 | 39 | 1013.4 |
| 20260503012009 | 11 | 228 | 9.7 | 14.5 | 0.00 | 0.00 | 0.00 | 39 | 1013.3 |
| 20260503011508 | 11 | 248 | 8.0 | 14.5 | 0.00 | 0.00 | 0.00 | 39 | 1013.3 |
| 20260503011003 | 11 | 241 | 8.0 | 12.9 | 0.00 | 0.00 | 0.00 | 39 | 1013.3 |
| 20260503010503 | 11 | 257 | 4.8 | 12.9 | 0.00 | 0.00 | 0.00 | 39 | 1013.4 |
| 20260503010012 | 11 | 258 | 8.0 | 14.5 | 0.00 | 0.00 | 0.00 | 38 | 1013.3 |
| 20260503005504 | 11 | 243 | 6.4 | 14.5 | 0.00 | 0.00 | 0.00 | 37 | 1013.4 |